Time;durP1;ratioP1;P1;durP2;ratioP2;P2;SDS_P1;SDS_P2;PMS_P1;PMS_P2;Temp;Humidity;BMP_temperature;BMP_pressure;BME280_temperature;BME280_humidity;BME280_pressure;Samples;Min_cycle;Max_cycle;Signal;HPM_P1;HPM_P2
2021/08/30 00:02:22;;;;;;;28.38;4.93;;;;;;;;;;5075961;28;20028;-48
2021/08/30 00:04:49;;;;;;;31.52;4.90;;;;;;;;;;5073653;28;20024;-54
2021/08/30 00:07:16;;;;;;;22.90;5.10;;;;;;;;;;5073844;28;20045;-47
2021/08/30 00:09:43;;;;;;;25.80;4.95;;;;;;;;;;5074908;28;20035;-55
2021/08/30 00:12:11;;;;;;;25.85;4.93;;;;;;;;;;5074842;28;20032;-54
2021/08/30 00:14:38;;;;;;;26.92;4.63;;;;;;;;;;5081807;28;20047;-52
2021/08/30 00:17:06;;;;;;;25.40;5.82;;;;;;;;;;5078830;28;20107;-56
2021/08/30 00:19:34;;;;;;;31.48;4.80;;;;;;;;;;5073226;28;20056;-47
2021/08/30 00:22:02;;;;;;;24.02;5.22;;;;;;;;;;5070336;28;20036;-52
2021/08/30 00:24:30;;;;;;;23.45;5.25;;;;;;;;;;5085443;28;20020;-51
2021/08/30 00:26:57;;;;;;;32.20;5.38;;;;;;;;;;5086241;28;20031;-47
2021/08/30 00:29:27;;;;;;;34.97;5.90;;;;;;;;;;5086361;28;20453;-50
2021/08/30 00:31:57;;;;;;;23.05;5.15;;;;;;;;;;5084599;28;20074;-54
2021/08/30 00:34:25;;;;;;;36.72;6.57;;;;;;;;;;5086337;28;20020;-52
2021/08/30 00:36:52;;;;;;;29.30;5.32;;;;;;;;;;5080414;28;20030;-53
2021/08/30 00:39:22;;;;;;;26.40;5.30;;;;;;;;;;5082242;28;20463;-53
2021/08/30 00:41:59;;;;;;;23.10;4.88;;;;;;;;;;5082416;28;20034;-54
2021/08/30 00:44:28;;;;;;;26.60;5.45;;;;;;;;;;5082094;28;20028;-54
2021/08/30 00:46:55;;;;;;;29.52;5.60;;;;;;;;;;5083817;28;20057;-53
2021/08/30 00:49:22;;;;;;;32.70;5.55;;;;;;;;;;5077157;28;20032;-53
2021/08/30 00:51:51;;;;;;;21.35;5.18;;;;;;;;;;5085963;28;20032;-55
2021/08/30 00:54:18;;;;;;;26.52;5.28;;;;;;;;;;5078070;28;20052;-52
2021/08/30 00:56:46;;;;;;;20.77;5.03;;;;;;;;;;5089440;28;20039;-55
2021/08/30 00:59:13;;;;;;;26.85;5.15;;;;;;;;;;5085997;28;20055;-56
2021/08/30 01:01:42;;;;;;;17.02;4.72;;;;;;;;;;5080957;28;20031;-51
2021/08/30 01:04:13;;;;;;;24.95;5.93;;;;;;;;;;5076051;28;20036;-53
2021/08/30 01:06:39;;;;;;;22.92;6.28;;;;;;;;;;5083689;28;20030;-56
2021/08/30 01:09:21;;;;;;;34.15;6.07;;;;;;;;;;5089283;28;20480;-53
2021/08/30 01:11:52;;;;;;;31.20;5.53;;;;;;;;;;5089588;28;20088;-53
2021/08/30 01:14:20;;;;;;;39.65;5.85;;;;;;;;;;5090814;28;20534;-53
2021/08/30 01:16:48;;;;;;;24.65;5.88;;;;;;;;;;5089449;28;20089;-53
2021/08/30 01:19:18;;;;;;;23.98;5.90;;;;;;;;;;5075692;28;20035;-53
2021/08/30 01:21:45;;;;;;;27.92;5.70;;;;;;;;;;5080571;28;20127;-55
2021/08/30 01:24:16;;;;;;;29.90;6.78;;;;;;;;;;5076277;28;20470;-51
2021/08/30 01:26:49;;;;;;;25.67;5.35;;;;;;;;;;5073066;28;20361;-53
2021/08/30 01:29:31;;;;;;;20.73;5.78;;;;;;;;;;5073696;28;20064;-52
2021/08/30 01:32:12;;;;;;;24.73;5.60;;;;;;;;;;5071451;28;20391;-56
2021/08/30 01:34:39;;;;;;;28.75;6.07;;;;;;;;;;5083959;28;20538;-55
2021/08/30 01:37:07;;;;;;;20.80;5.93;;;;;;;;;;5077997;28;20016;-55
2021/08/30 01:39:34;;;;;;;28.30;6.50;;;;;;;;;;5079047;28;20024;-53
2021/08/30 01:42:02;;;;;;;26.40;5.70;;;;;;;;;;5088429;28;20138;-53
2021/08/30 01:44:29;;;;;;;33.00;6.18;;;;;;;;;;5076002;28;20365;-53
2021/08/30 01:46:57;;;;;;;31.88;5.82;;;;;;;;;;5081689;28;20081;-51
2021/08/30 01:49:28;;;;;;;22.52;6.13;;;;;;;;;;5075231;28;20143;-49
2021/08/30 01:51:55;;;;;;;24.58;5.40;;;;;;;;;;5083865;28;20047;-52
2021/08/30 01:54:23;;;;;;;23.95;5.57;;;;;;;;;;5091633;28;20016;-53
2021/08/30 01:56:53;;;;;;;20.98;6.47;;;;;;;;;;5086878;28;20020;-53
2021/08/30 02:02:07;;;;;;;19.00;5.70;;;;;;;;;;5082905;28;20108;-51
2021/08/30 02:04:34;;;;;;;21.33;5.70;;;;;;;;;;5082329;28;20040;-53
2021/08/30 02:07:02;;;;;;;17.50;5.90;;;;;;;;;;5084709;28;20098;-53
2021/08/30 02:09:29;;;;;;;22.75;5.85;;;;;;;;;;5089234;28;20592;-51
2021/08/30 02:11:56;;;;;;;16.05;5.53;;;;;;;;;;5076143;28;20056;-52
2021/08/30 02:14:23;;;;;;;17.77;5.88;;;;;;;;;;5081498;28;20131;-49
2021/08/30 02:16:51;;;;;;;14.77;5.55;;;;;;;;;;5084555;28;20107;-53
2021/08/30 02:19:25;;;;;;;29.77;6.07;;;;;;;;;;5091260;28;20119;-57
2021/08/30 02:22:03;;;;;;;25.85;6.40;;;;;;;;;;5083067;28;20070;-57
2021/08/30 02:24:33;;;;;;;23.75;5.47;;;;;;;;;;5082811;28;20016;-47
2021/08/30 02:27:05;;;;;;;28.50;6.30;;;;;;;;;;5083360;28;20016;-47
2021/08/30 02:29:55;;;;;;;21.95;6.10;;;;;;;;;;5079803;28;20041;-45
2021/08/30 02:32:22;;;;;;;27.25;6.70;;;;;;;;;;5098574;28;20506;-46
2021/08/30 02:34:51;;;;;;;20.25;5.53;;;;;;;;;;5091168;28;20026;-47
2021/08/30 02:37:18;;;;;;;21.08;6.35;;;;;;;;;;5092240;28;20000;-47
2021/08/30 02:39:49;;;;;;;16.52;5.93;;;;;;;;;;5092154;28;20662;-46
2021/08/30 02:42:16;;;;;;;21.90;6.07;;;;;;;;;;5092903;28;20023;-45
2021/08/30 02:44:44;;;;;;;21.95;5.63;;;;;;;;;;5092623;28;20131;-47
2021/08/30 02:47:12;;;;;;;18.05;5.53;;;;;;;;;;5074556;28;20035;-47
2021/08/30 02:49:40;;;;;;;19.33;6.15;;;;;;;;;;5071835;28;20016;-49
2021/08/30 02:52:08;;;;;;;24.98;6.03;;;;;;;;;;5072465;28;20028;-45
2021/08/30 02:54:35;;;;;;;17.13;5.45;;;;;;;;;;5072197;28;20028;-47
2021/08/30 02:57:03;;;;;;;17.70;5.80;;;;;;;;;;5072567;28;20096;-47
2021/08/30 02:59:30;;;;;;;14.43;5.55;;;;;;;;;;5071990;28;20488;-44
2021/08/30 03:01:59;;;;;;;18.88;5.43;;;;;;;;;;5072438;28;20064;-46
2021/08/30 03:04:26;;;;;;;13.65;6.18;;;;;;;;;;5072360;28;20047;-47
2021/08/30 03:06:54;;;;;;;13.48;5.57;;;;;;;;;;5072554;28;20511;-47
2021/08/30 03:09:21;;;;;;;10.48;5.47;;;;;;;;;;5071320;28;20441;-47
2021/08/30 03:11:50;;;;;;;23.15;5.85;;;;;;;;;;5072533;28;20107;-47
2021/08/30 03:14:19;;;;;;;17.20;5.60;;;;;;;;;;5071932;28;20533;-46
2021/08/30 03:16:46;;;;;;;17.00;5.70;;;;;;;;;;5072636;28;20012;-46
2021/08/30 03:19:14;;;;;;;15.20;5.88;;;;;;;;;;5071879;28;20081;-45
2021/08/30 03:21:42;;;;;;;18.13;5.88;;;;;;;;;;5072368;28;20107;-46
2021/08/30 03:24:10;;;;;;;17.98;6.07;;;;;;;;;;5071929;28;20393;-46
2021/08/30 03:26:37;;;;;;;21.65;6.38;;;;;;;;;;5072632;28;20024;-45
2021/08/30 03:29:04;;;;;;;19.20;5.32;;;;;;;;;;5072062;28;20498;-46
2021/08/30 03:31:33;;;;;;;15.00;5.20;;;;;;;;;;5071602;28;20032;-47
2021/08/30 03:34:01;;;;;;;17.83;5.07;;;;;;;;;;5072355;28;20016;-46
2021/08/30 03:36:28;;;;;;;16.60;5.65;;;;;;;;;;5071509;28;20028;-45
2021/08/30 03:38:57;;;;;;;14.38;5.43;;;;;;;;;;5072134;28;20020;-47
2021/08/30 03:41:25;;;;;;;13.10;5.00;;;;;;;;;;5071477;28;20039;-47
2021/08/30 03:43:52;;;;;;;18.45;5.28;;;;;;;;;;5077065;28;20069;-45
2021/08/30 03:46:19;;;;;;;13.82;4.95;;;;;;;;;;5080553;28;20051;-46
2021/08/30 03:48:47;;;;;;;14.98;6.00;;;;;;;;;;5071873;28;20581;-45
2021/08/30 03:51:14;;;;;;;13.43;5.00;;;;;;;;;;5071129;28;20044;-48
2021/08/30 03:53:42;;;;;;;15.02;4.90;;;;;;;;;;5085991;28;20024;-48
2021/08/30 03:56:09;;;;;;;9.68;4.78;;;;;;;;;;5070926;28;20082;-45
2021/08/30 03:58:38;;;;;;;16.17;4.97;;;;;;;;;;5071892;28;20031;-47
2021/08/30 04:01:07;;;;;;;11.73;4.88;;;;;;;;;;5071236;28;20033;-45
2021/08/30 04:03:39;;;;;;;11.05;5.05;;;;;;;;;;5072021;28;20028;-47
2021/08/30 04:06:09;;;;;;;17.70;4.85;;;;;;;;;;5071619;28;20020;-46
2021/08/30 04:08:36;;;;;;;12.30;4.60;;;;;;;;;;5071296;28;20495;-47
2021/08/30 04:11:03;;;;;;;14.90;4.70;;;;;;;;;;5071318;28;20064;-45
2021/08/30 04:13:30;;;;;;;13.82;5.10;;;;;;;;;;5071083;28;20025;-47
2021/08/30 04:15:57;;;;;;;9.32;4.70;;;;;;;;;;5071293;28;20027;-51
2021/08/30 04:18:24;;;;;;;9.30;4.43;;;;;;;;;;5070931;28;20069;-51
2021/08/30 04:20:51;;;;;;;14.95;4.90;;;;;;;;;;5070932;28;20029;-52
2021/08/30 04:23:18;;;;;;;16.23;5.05;;;;;;;;;;5071197;28;20044;-52
2021/08/30 04:25:45;;;;;;;14.27;4.68;;;;;;;;;;5071371;28;20085;-54
2021/08/30 04:28:12;;;;;;;12.40;4.55;;;;;;;;;;5070747;28;20103;-50
2021/08/30 04:30:39;;;;;;;12.90;5.10;;;;;;;;;;5071099;28;20498;-51
2021/08/30 04:33:10;;;;;;;9.25;4.72;;;;;;;;;;5085808;28;20038;-53
2021/08/30 04:35:38;;;;;;;8.05;4.68;;;;;;;;;;5077621;28;20697;-53
2021/08/30 04:38:05;;;;;;;10.38;4.35;;;;;;;;;;5085014;28;20028;-53
2021/08/30 04:40:32;;;;;;;9.00;4.60;;;;;;;;;;5071113;28;20025;-50
2021/08/30 04:43:00;;;;;;;9.65;4.45;;;;;;;;;;5070595;28;20025;-50
2021/08/30 04:45:27;;;;;;;7.70;4.68;;;;;;;;;;5085469;28;20480;-52
2021/08/30 04:47:54;;;;;;;7.97;4.18;;;;;;;;;;5071073;28;20060;-54
2021/08/30 04:50:21;;;;;;;7.93;4.53;;;;;;;;;;5070213;28;20556;-53
2021/08/30 04:52:48;;;;;;;10.20;4.72;;;;;;;;;;5071286;28;20048;-51
2021/08/30 04:55:15;;;;;;;5.88;3.90;;;;;;;;;;5070378;28;20027;-53
2021/08/30 04:57:42;;;;;;;7.80;4.10;;;;;;;;;;5071094;28;20029;-52
2021/08/30 05:00:10;;;;;;;8.10;4.30;;;;;;;;;;5070728;28;20103;-54
2021/08/30 05:02:37;;;;;;;5.80;3.97;;;;;;;;;;5070669;28;20016;-55
2021/08/30 05:05:04;;;;;;;11.60;4.18;;;;;;;;;;5070462;28;20032;-53
2021/08/30 05:07:31;;;;;;;8.52;4.15;;;;;;;;;;5072426;28;20379;-54
2021/08/30 05:09:58;;;;;;;7.38;4.63;;;;;;;;;;5074318;28;20028;-51
2021/08/30 05:12:28;;;;;;;6.85;4.32;;;;;;;;;;5074581;28;20059;-54
2021/08/30 05:14:56;;;;;;;12.15;4.28;;;;;;;;;;5073147;28;20439;-52
2021/08/30 05:17:23;;;;;;;9.60;4.05;;;;;;;;;;5074611;28;20099;-52
2021/08/30 05:19:50;;;;;;;8.63;4.68;;;;;;;;;;5074335;28;20021;-47
2021/08/30 05:22:17;;;;;;;8.23;4.25;;;;;;;;;;5074301;28;20469;-53
2021/08/30 05:24:44;;;;;;;9.18;4.22;;;;;;;;;;5074592;28;20024;-52
2021/08/30 05:27:11;;;;;;;5.10;4.03;;;;;;;;;;5074240;28;20483;-51
2021/08/30 05:29:38;;;;;;;7.80;4.13;;;;;;;;;;5074177;28;20048;-53
2021/08/30 05:32:06;;;;;;;6.45;3.95;;;;;;;;;;5073679;28;20029;-52
2021/08/30 05:34:33;;;;;;;6.53;4.00;;;;;;;;;;5074371;28;20035;-55
2021/08/30 05:37:00;;;;;;;7.78;4.20;;;;;;;;;;5074158;28;20365;-53
2021/08/30 05:39:27;;;;;;;6.15;3.55;;;;;;;;;;5074429;28;20058;-54
2021/08/30 05:41:54;;;;;;;6.22;4.18;;;;;;;;;;5073661;28;20031;-53
2021/08/30 05:44:21;;;;;;;7.43;4.15;;;;;;;;;;5083151;28;20047;-55
2021/08/30 05:46:50;;;;;;;5.80;3.80;;;;;;;;;;5078559;28;20024;-54
2021/08/30 05:49:17;;;;;;;5.95;3.90;;;;;;;;;;5074243;28;20028;-54
2021/08/30 05:51:45;;;;;;;6.72;3.67;;;;;;;;;;5073352;28;20033;-55
2021/08/30 05:54:12;;;;;;;7.80;3.80;;;;;;;;;;5074117;28;20062;-53
2021/08/30 05:56:39;;;;;;;5.22;4.00;;;;;;;;;;5073629;28;20384;-49
2021/08/30 05:59:06;;;;;;;6.13;4.00;;;;;;;;;;5073955;28;20012;-54
2021/08/30 06:01:36;;;;;;;7.47;4.32;;;;;;;;;;5073612;28;20024;-52
2021/08/30 06:04:03;;;;;;;4.70;3.50;;;;;;;;;;5073194;28;20027;-55
2021/08/30 06:06:30;;;;;;;6.28;3.75;;;;;;;;;;5074030;28;20024;-52
2021/08/30 06:08:57;;;;;;;6.35;3.88;;;;;;;;;;5073392;28;20108;-54
2021/08/30 06:11:25;;;;;;;7.00;3.97;;;;;;;;;;5071820;28;20123;-52
2021/08/30 06:13:52;;;;;;;5.68;3.30;;;;;;;;;;5077067;28;20027;-54
2021/08/30 06:16:19;;;;;;;4.45;3.40;;;;;;;;;;5083492;28;20036;-55
2021/08/30 06:18:46;;;;;;;6.70;3.67;;;;;;;;;;5081895;28;20024;-51
2021/08/30 06:21:13;;;;;;;6.05;3.60;;;;;;;;;;5077433;28;20108;-52
2021/08/30 06:23:40;;;;;;;6.10;3.72;;;;;;;;;;5073036;28;20020;-53
2021/08/30 06:26:07;;;;;;;7.28;4.07;;;;;;;;;;5087855;28;20065;-54
2021/08/30 06:28:34;;;;;;;5.68;3.65;;;;;;;;;;5087086;28;20063;-51
2021/08/30 06:31:01;;;;;;;4.72;3.28;;;;;;;;;;5073263;28;20045;-53
2021/08/30 06:33:28;;;;;;;7.35;3.58;;;;;;;;;;5072688;28;20380;-49
2021/08/30 06:35:55;;;;;;;7.40;3.40;;;;;;;;;;5073215;28;20024;-56
2021/08/30 06:38:22;;;;;;;9.27;3.90;;;;;;;;;;5073092;28;20369;-55
2021/08/30 06:40:49;;;;;;;5.38;3.45;;;;;;;;;;5072838;28;20012;-55
2021/08/30 06:43:16;;;;;;;5.95;2.97;;;;;;;;;;5073133;28;20158;-52
2021/08/30 06:45:43;;;;;;;5.85;3.63;;;;;;;;;;5086099;28;20426;-54
2021/08/30 06:48:10;;;;;;;6.13;3.33;;;;;;;;;;5073383;28;20109;-49
2021/08/30 06:50:37;;;;;;;6.47;3.20;;;;;;;;;;5072296;28;20033;-54
2021/08/30 06:53:04;;;;;;;6.22;3.40;;;;;;;;;;5073022;28;20492;-52
2021/08/30 06:55:31;;;;;;;6.85;3.22;;;;;;;;;;5072439;28;20024;-54
2021/08/30 06:57:58;;;;;;;7.50;3.25;;;;;;;;;;5072704;28;20020;-50
2021/08/30 07:00:25;;;;;;;5.82;3.58;;;;;;;;;;5072334;28;20024;-50
2021/08/30 07:02:54;;;;;;;8.45;3.38;;;;;;;;;;5072774;28;20074;-55
2021/08/30 07:05:22;;;;;;;4.75;3.20;;;;;;;;;;5072257;28;20107;-49
2021/08/30 07:07:49;;;;;;;5.63;3.33;;;;;;;;;;5072663;28;20505;-50
2021/08/30 07:10:16;;;;;;;9.02;3.60;;;;;;;;;;5072364;28;20510;-51
2021/08/30 07:12:43;;;;;;;10.77;3.47;;;;;;;;;;5072086;28;20059;-53
2021/08/30 07:15:10;;;;;;;6.05;3.30;;;;;;;;;;5072516;28;20480;-54
2021/08/30 07:17:37;;;;;;;4.85;3.30;;;;;;;;;;5074318;28;20074;-50
2021/08/30 07:20:05;;;;;;;7.10;3.40;;;;;;;;;;5084265;28;20056;-53
2021/08/30 07:22:31;;;;;;;4.70;3.50;;;;;;;;;;5071883;28;20023;-52
2021/08/30 07:24:58;;;;;;;4.32;3.40;;;;;;;;;;5072652;28;20021;-54
2021/08/30 07:27:26;;;;;;;4.95;3.10;;;;;;;;;;5071822;28;20086;-52
2021/08/30 07:29:53;;;;;;;5.00;3.28;;;;;;;;;;5071895;28;20124;-53
2021/08/30 07:32:20;;;;;;;8.23;3.38;;;;;;;;;;5071004;28;20037;-53
2021/08/30 07:34:47;;;;;;;7.38;3.80;;;;;;;;;;5071938;28;20044;-50
2021/08/30 07:37:14;;;;;;;5.38;3.65;;;;;;;;;;5071723;28;20530;-50
2021/08/30 07:39:41;;;;;;;5.45;3.42;;;;;;;;;;5072204;28;20418;-54
2021/08/30 07:42:08;;;;;;;4.95;3.38;;;;;;;;;;5071476;28;20024;-51
2021/08/30 07:44:35;;;;;;;6.43;3.50;;;;;;;;;;5071514;28;20035;-52
2021/08/30 07:47:02;;;;;;;5.03;3.80;;;;;;;;;;5072263;28;20028;-52
2021/08/30 07:49:29;;;;;;;7.03;3.78;;;;;;;;;;5071416;28;20017;-52
2021/08/30 07:51:56;;;;;;;4.70;3.72;;;;;;;;;;5071708;28;20452;-51
2021/08/30 07:54:23;;;;;;;5.13;3.20;;;;;;;;;;5071455;28;20067;-54
2021/08/30 07:56:50;;;;;;;7.38;3.75;;;;;;;;;;5071620;28;20104;-51
2021/08/30 07:59:18;;;;;;;5.20;3.75;;;;;;;;;;5071483;28;20460;-50
2021/08/30 08:01:46;;;;;;;5.15;4.03;;;;;;;;;;5071736;28;20103;-53
2021/08/30 08:04:13;;;;;;;5.07;3.90;;;;;;;;;;5079239;28;20032;-53
2021/08/30 08:06:40;;;;;;;6.15;3.88;;;;;;;;;;5085931;28;20016;-54
2021/08/30 08:09:07;;;;;;;7.25;3.90;;;;;;;;;;5071367;28;20025;-55
2021/08/30 08:11:34;;;;;;;5.32;3.85;;;;;;;;;;5071462;28;20488;-53
2021/08/30 08:14:02;;;;;;;8.00;4.28;;;;;;;;;;5070723;28;20555;-51
2021/08/30 08:16:29;;;;;;;5.82;4.25;;;;;;;;;;5071478;28;20118;-53
2021/08/30 08:18:56;;;;;;;5.65;3.83;;;;;;;;;;5084711;28;20471;-52
2021/08/30 08:21:24;;;;;;;6.60;4.05;;;;;;;;;;5071694;28;20383;-50
2021/08/30 08:23:51;;;;;;;6.07;4.03;;;;;;;;;;5071642;28;20024;-51
2021/08/30 08:26:18;;;;;;;5.13;4.57;;;;;;;;;;5070867;28;20039;-53
2021/08/30 08:28:45;;;;;;;5.63;4.10;;;;;;;;;;5071261;28;20016;-51
2021/08/30 08:31:12;;;;;;;7.03;4.35;;;;;;;;;;5070923;28;20052;-52
2021/08/30 08:33:41;;;;;;;6.90;4.53;;;;;;;;;;5071258;28;20056;-54
2021/08/30 08:36:08;;;;;;;7.38;4.18;;;;;;;;;;5068980;28;20025;-50
2021/08/30 08:38:35;;;;;;;5.22;4.15;;;;;;;;;;5068045;28;20441;-52
2021/08/30 08:41:02;;;;;;;5.82;4.38;;;;;;;;;;5072350;28;20036;-52
2021/08/30 08:43:29;;;;;;;8.38;4.65;;;;;;;;;;5077602;28;20074;-50
2021/08/30 08:45:57;;;;;;;6.63;4.57;;;;;;;;;;5080609;28;20053;-51
2021/08/30 08:48:24;;;;;;;8.77;4.45;;;;;;;;;;5077181;28;20074;-51
2021/08/30 08:50:51;;;;;;;6.82;4.65;;;;;;;;;;5082139;28;20038;-54
2021/08/30 08:53:18;;;;;;;7.65;4.63;;;;;;;;;;5077064;28;20012;-50
2021/08/30 08:55:45;;;;;;;9.25;4.53;;;;;;;;;;5080661;28;20035;-50
2021/08/30 08:58:13;;;;;;;6.90;4.78;;;;;;;;;;5088779;28;20020;-49
2021/08/30 09:00:41;;;;;;;5.97;4.57;;;;;;;;;;5071184;28;20039;-49
2021/08/30 09:03:18;;;;;;;8.20;4.60;;;;;;;;;;5070715;28;20017;-52
2021/08/30 09:05:45;;;;;;;5.80;4.40;;;;;;;;;;5071124;28;20017;-49
2021/08/30 09:08:33;;;;;;;10.35;4.95;;;;;;;;;;5070361;28;20043;-52
2021/08/30 09:11:00;;;;;;;6.70;4.53;;;;;;;;;;5071033;28;20029;-50
2021/08/30 09:13:29;;;;;;;6.72;4.80;;;;;;;;;;5088480;28;20081;-49
2021/08/30 09:15:56;;;;;;;9.35;4.63;;;;;;;;;;5074475;28;20033;-53
2021/08/30 09:18:28;;;;;;;9.30;4.68;;;;;;;;;;5079052;28;20024;-50
2021/08/30 09:20:55;;;;;;;9.32;4.68;;;;;;;;;;5075549;28;20036;-52
2021/08/30 09:23:23;;;;;;;6.22;3.80;;;;;;;;;;5071378;28;20020;-54
2021/08/30 09:26:02;;;;;;;7.85;4.10;;;;;;;;;;5090875;28;20051;-54
2021/08/30 09:28:30;;;;;;;6.43;4.38;;;;;;;;;;5083993;28;20020;-54
2021/08/30 09:30:57;;;;;;;6.22;4.28;;;;;;;;;;5070532;28;20059;-52
2021/08/30 09:33:25;;;;;;;8.98;4.18;;;;;;;;;;5070091;28;20044;-53
2021/08/30 09:35:59;;;;;;;10.13;4.53;;;;;;;;;;5070510;28;20020;-50
2021/08/30 09:38:27;;;;;;;6.63;4.40;;;;;;;;;;5070078;28;20082;-51
2021/08/30 09:41:04;;;;;;;5.63;3.95;;;;;;;;;;5070674;28;20029;-50
2021/08/30 09:43:31;;;;;;;5.57;4.18;;;;;;;;;;5070194;28;20025;-53
2021/08/30 09:46:00;;;;;;;7.22;4.43;;;;;;;;;;5070343;28;20065;-53
2021/08/30 09:48:28;;;;;;;5.65;4.15;;;;;;;;;;5069124;28;20021;-53
2021/08/30 09:51:00;;;;;;;7.68;4.90;;;;;;;;;;5070358;28;20036;-52
2021/08/30 09:53:27;;;;;;;6.50;4.25;;;;;;;;;;5070630;28;20031;-53
2021/08/30 09:55:54;;;;;;;6.75;4.20;;;;;;;;;;5073088;28;20533;-53
2021/08/30 09:58:24;;;;;;;6.25;4.50;;;;;;;;;;5073897;28;20025;-52
2021/08/30 10:00:52;;;;;;;5.30;4.07;;;;;;;;;;5073729;28;20413;-53
2021/08/30 10:03:19;;;;;;;5.13;4.03;;;;;;;;;;5074115;28;20066;-51
2021/08/30 10:05:47;;;;;;;5.13;3.97;;;;;;;;;;5073145;28;20024;-50
2021/08/30 10:08:16;;;;;;;6.40;4.03;;;;;;;;;;5084289;28;20020;-51
2021/08/30 10:10:43;;;;;;;6.47;4.30;;;;;;;;;;5091886;28;20024;-50
2021/08/30 10:13:10;;;;;;;5.55;4.07;;;;;;;;;;5083477;28;20596;-51
2021/08/30 10:15:37;;;;;;;6.25;4.50;;;;;;;;;;5080311;28;20448;-55
2021/08/30 10:18:04;;;;;;;8.07;4.22;;;;;;;;;;5079616;28;20028;-53
2021/08/30 10:20:35;;;;;;;10.10;3.92;;;;;;;;;;5075461;28;20021;-50
2021/08/30 10:23:06;;;;;;;13.02;4.13;;;;;;;;;;5073279;28;20020;-50
2021/08/30 10:25:40;;;;;;;8.02;4.35;;;;;;;;;;5083148;28;20032;-51
2021/08/30 10:28:12;;;;;;;6.38;4.03;;;;;;;;;;5087063;28;20048;-49
2021/08/30 10:30:51;;;;;;;12.85;4.38;;;;;;;;;;5078656;28;20443;-52
2021/08/30 10:33:22;;;;;;;11.43;4.00;;;;;;;;;;5073316;28;20029;-50
2021/08/30 10:35:49;;;;;;;9.05;3.72;;;;;;;;;;5071402;28;20086;-53
2021/08/30 10:38:17;;;;;;;7.03;3.88;;;;;;;;;;5076243;28;20020;-51
2021/08/30 10:40:49;;;;;;;7.88;3.90;;;;;;;;;;5090221;28;20040;-53
2021/08/30 10:43:16;;;;;;;5.90;3.85;;;;;;;;;;5079943;28;20017;-54
2021/08/30 10:45:45;;;;;;;9.85;4.03;;;;;;;;;;5091199;28;20028;-51
2021/08/30 10:48:14;;;;;;;5.88;3.95;;;;;;;;;;5089485;28;20027;-50
2021/08/30 10:50:51;;;;;;;5.35;3.63;;;;;;;;;;5091963;28;20028;-53
2021/08/30 10:53:23;;;;;;;5.55;3.90;;;;;;;;;;5086100;28;20025;-53
2021/08/30 10:55:53;;;;;;;10.35;4.18;;;;;;;;;;5091644;28;20057;-55
2021/08/30 10:58:25;;;;;;;6.13;3.67;;;;;;;;;;5075911;28;20060;-53
2021/08/30 11:00:56;;;;;;;6.90;4.03;;;;;;;;;;5072897;28;20020;-50
2021/08/30 11:03:29;;;;;;;9.65;4.28;;;;;;;;;;5080900;28;20351;-52
2021/08/30 11:06:12;;;;;;;14.13;3.97;;;;;;;;;;5076645;28;20078;-49
2021/08/30 11:08:41;;;;;;;7.60;4.05;;;;;;;;;;5081845;28;20013;-47
2021/08/30 11:11:16;;;;;;;15.45;4.47;;;;;;;;;;5086515;28;20038;-53
2021/08/30 11:13:45;;;;;;;18.98;4.35;;;;;;;;;;5083698;28;20430;-58
2021/08/30 11:16:22;;;;;;;16.55;4.35;;;;;;;;;;5087772;28;20127;-55
2021/08/30 11:18:53;;;;;;;17.48;4.22;;;;;;;;;;5076089;28;20016;-57
2021/08/30 11:21:33;;;;;;;20.88;3.90;;;;;;;;;;5081279;28;20047;-47
2021/08/30 11:24:00;;;;;;;19.58;4.60;;;;;;;;;;5087271;28;20112;-46
2021/08/30 11:26:28;;;;;;;12.27;4.07;;;;;;;;;;5083487;28;20027;-46
2021/08/30 11:28:59;;;;;;;12.68;3.95;;;;;;;;;;5087290;28;20024;-44
2021/08/30 11:31:28;;;;;;;18.88;3.67;;;;;;;;;;5082918;28;20123;-51
2021/08/30 11:33:56;;;;;;;13.52;3.92;;;;;;;;;;5078034;28;20055;-51
2021/08/30 11:36:23;;;;;;;14.73;4.00;;;;;;;;;;5084704;28;20024;-51
2021/08/30 11:38:54;;;;;;;18.65;4.55;;;;;;;;;;5073582;28;20017;-51
2021/08/30 11:41:21;;;;;;;14.30;4.05;;;;;;;;;;5075255;28;20077;-48
2021/08/30 11:43:49;;;;;;;14.10;3.70;;;;;;;;;;5088714;28;20020;-49
2021/08/30 11:46:16;;;;;;;13.15;3.80;;;;;;;;;;5090572;28;20024;-51
2021/08/30 11:48:44;;;;;;;12.50;3.60;;;;;;;;;;5088570;28;20024;-43
2021/08/30 11:51:11;;;;;;;16.80;3.67;;;;;;;;;;5085007;28;20430;-45
2021/08/30 11:53:38;;;;;;;12.65;3.92;;;;;;;;;;5088099;28;20031;-49
2021/08/30 11:56:05;;;;;;;27.30;4.07;;;;;;;;;;5080808;28;20032;-47
2021/08/30 11:58:34;;;;;;;16.70;4.00;;;;;;;;;;5083177;28;20012;-53
2021/08/30 12:01:04;;;;;;;17.63;3.70;;;;;;;;;;5084609;28;20149;-47
2021/08/30 12:03:42;;;;;;;23.40;4.78;;;;;;;;;;5083297;28;20028;-49
2021/08/30 12:06:18;;;;;;;16.70;4.00;;;;;;;;;;5072436;28;20078;-51
2021/08/30 12:08:49;;;;;;;18.02;3.55;;;;;;;;;;5076344;28;20021;-59
2021/08/30 12:11:17;;;;;;;13.88;3.40;;;;;;;;;;5087640;28;20042;-58
2021/08/30 12:13:56;;;;;;;23.45;4.10;;;;;;;;;;5088400;28;20309;-54
2021/08/30 12:16:24;;;;;;;8.88;3.53;;;;;;;;;;5090404;28;20031;-58
2021/08/30 12:18:51;;;;;;;15.40;4.43;;;;;;;;;;5088044;28;20023;-56
2021/08/30 12:21:36;;;;;;;15.70;3.60;;;;;;;;;;5075674;28;20039;-47
2021/08/30 12:24:03;;;;;;;21.40;4.22;;;;;;;;;;5075976;28;20044;-54
2021/08/30 12:26:30;;;;;;;14.57;3.80;;;;;;;;;;5070932;28;20078;-56
2021/08/30 12:28:59;;;;;;;18.55;4.00;;;;;;;;;;5082026;28;20020;-55
2021/08/30 12:31:29;;;;;;;13.93;3.35;;;;;;;;;;5080281;28;20033;-58
2021/08/30 12:34:07;;;;;;;10.32;3.35;;;;;;;;;;5081325;28;20024;-57
2021/08/30 12:36:35;;;;;;;13.80;3.72;;;;;;;;;;5081871;28;20052;-51
2021/08/30 12:39:02;;;;;;;14.68;3.58;;;;;;;;;;5072295;28;20020;-59
2021/08/30 12:41:29;;;;;;;12.65;3.28;;;;;;;;;;5073249;28;20020;-60
2021/08/30 12:43:56;;;;;;;12.95;3.35;;;;;;;;;;5085490;28;20044;-59
2021/08/30 12:46:23;;;;;;;17.67;4.07;;;;;;;;;;5086652;28;20017;-60
2021/08/30 12:48:51;;;;;;;12.73;3.60;;;;;;;;;;5082998;28;20024;-58
2021/08/30 12:51:19;;;;;;;16.10;3.30;;;;;;;;;;5083081;28;20030;-58
2021/08/30 12:53:46;;;;;;;20.20;3.60;;;;;;;;;;5088078;28;20027;-57
2021/08/30 12:56:13;;;;;;;17.85;3.55;;;;;;;;;;5086038;28;20487;-58
2021/08/30 12:58:40;;;;;;;14.40;3.90;;;;;;;;;;5087130;28;20065;-58
2021/08/30 13:01:08;;;;;;;10.10;3.60;;;;;;;;;;5079661;28;20048;-60
2021/08/30 13:03:36;;;;;;;18.23;3.90;;;;;;;;;;5069945;28;20032;-57
2021/08/30 13:06:03;;;;;;;20.95;3.55;;;;;;;;;;5075377;28;20440;-57
2021/08/30 13:08:30;;;;;;;17.10;4.28;;;;;;;;;;5070774;28;20036;-59
2021/08/30 13:10:57;;;;;;;18.88;3.42;;;;;;;;;;5087346;28;20032;-58
2021/08/30 13:13:24;;;;;;;15.52;3.80;;;;;;;;;;5081762;28;20387;-59
2021/08/30 13:15:53;;;;;;;15.18;4.03;;;;;;;;;;5069877;28;20475;-57
2021/08/30 13:18:20;;;;;;;22.42;3.42;;;;;;;;;;5073843;28;20028;-59
2021/08/30 13:20:52;;;;;;;32.95;4.95;;;;;;;;;;5081359;28;20024;-59
2021/08/30 13:23:20;;;;;;;19.65;4.20;;;;;;;;;;5088620;28;20054;-58
2021/08/30 13:25:47;;;;;;;25.10;3.80;;;;;;;;;;5077050;28;20073;-57
2021/08/30 13:28:14;;;;;;;15.77;3.53;;;;;;;;;;5079052;28;20560;-59
2021/08/30 13:30:41;;;;;;;28.42;4.28;;;;;;;;;;5088526;28;20591;-58
2021/08/30 13:33:08;;;;;;;17.67;4.20;;;;;;;;;;5091004;28;20032;-57
2021/08/30 13:35:37;;;;;;;18.60;3.97;;;;;;;;;;5088529;28;20472;-55
2021/08/30 13:38:04;;;;;;;9.25;3.47;;;;;;;;;;5090845;28;20157;-54
2021/08/30 13:40:36;;;;;;;18.50;4.05;;;;;;;;;;5091906;28;20023;-54
2021/08/30 13:43:03;;;;;;;18.38;4.05;;;;;;;;;;5087362;28;20029;-52
2021/08/30 13:45:30;;;;;;;16.95;3.72;;;;;;;;;;5088621;28;20404;-53
2021/08/30 13:47:58;;;;;;;21.42;4.28;;;;;;;;;;5086427;28;20154;-55
2021/08/30 13:50:25;;;;;;;14.73;4.13;;;;;;;;;;5081600;28;20029;-49
2021/08/30 13:52:52;;;;;;;15.20;3.63;;;;;;;;;;5075411;28;20024;-49
2021/08/30 13:55:19;;;;;;;10.20;3.75;;;;;;;;;;5084291;28;20020;-49
2021/08/30 13:57:46;;;;;;;12.93;3.53;;;;;;;;;;5084409;28;20032;-53
2021/08/30 14:00:14;;;;;;;19.80;4.07;;;;;;;;;;5081605;28;20383;-52
2021/08/30 14:02:41;;;;;;;13.77;4.15;;;;;;;;;;5092274;28;20031;-51
2021/08/30 14:05:09;;;;;;;26.30;4.57;;;;;;;;;;5073626;28;20029;-52
2021/08/30 14:07:36;;;;;;;12.65;3.95;;;;;;;;;;5087348;28;20115;-49
2021/08/30 14:10:05;;;;;;;27.67;4.75;;;;;;;;;;5088779;28;20020;-49
2021/08/30 14:12:32;;;;;;;24.48;4.72;;;;;;;;;;5091720;28;20421;-49
2021/08/30 14:14:59;;;;;;;26.95;4.70;;;;;;;;;;5084058;28;20071;-58
2021/08/30 14:17:26;;;;;;;27.52;4.95;;;;;;;;;;5087543;28;20096;-58
2021/08/30 14:19:52;;;;;;;30.65;5.40;;;;;;;;;;5090677;28;20020;-59
2021/08/30 14:22:20;;;;;;;22.08;4.47;;;;;;;;;;5088402;28;20471;-56
2021/08/30 14:24:47;;;;;;;27.30;4.80;;;;;;;;;;5076324;28;20029;-58
2021/08/30 14:27:17;;;;;;;33.47;5.55;;;;;;;;;;5088720;28;20111;-59
2021/08/30 14:29:45;;;;;;;34.35;4.90;;;;;;;;;;5085697;28;20072;-48
2021/08/30 14:32:12;;;;;;;32.63;5.95;;;;;;;;;;5092044;28;20561;-58
2021/08/30 14:34:39;;;;;;;25.17;5.70;;;;;;;;;;5073040;28;20017;-59
2021/08/30 14:37:06;;;;;;;38.08;6.20;;;;;;;;;;5072719;28;20111;-57
2021/08/30 14:39:34;;;;;;;38.53;6.82;;;;;;;;;;5072022;28;20021;-61
2021/08/30 14:42:01;;;;;;;34.88;5.38;;;;;;;;;;5071684;28;20128;-60
2021/08/30 14:44:28;;;;;;;32.72;5.95;;;;;;;;;;5075834;28;20066;-54
2021/08/30 14:46:56;;;;;;;34.75;6.10;;;;;;;;;;5084049;28;20388;-59